Time;durP1;ratioP1;P1;durP2;ratioP2;P2;SDS_P1;SDS_P2;PMS_P1;PMS_P2;Temp;Humidity;BMP_temperature;BMP_pressure;BME280_temperature;BME280_humidity;BME280_pressure;Samples;Min_cycle;Max_cycle;Signal;HPM_P1;HPM_P2
2022/07/09 00:00:34;;;;;;;2.33;1.97;;;17.60;99.90;;;;;;5008281;28;20207;-85
2022/07/09 00:03:00;;;;;;;9.67;2.10;;;17.60;99.90;;;;;;4975675;28;20306;-85
2022/07/09 00:05:25;;;;;;;3.10;1.80;;;17.60;99.90;;;;;;5009616;28;20597;-85
2022/07/09 00:07:51;;;;;;;7.23;2.63;;;17.60;99.90;;;;;;4983621;28;20251;-84
2022/07/09 00:10:17;;;;;;;3.70;1.60;;;17.60;99.90;;;;;;4966618;28;20223;-85
2022/07/09 00:12:42;;;;;;;6.07;1.37;;;17.60;99.90;;;;;;4992304;28;20223;-84
2022/07/09 00:15:09;;;;;;;11.07;2.13;;;17.60;99.90;;;;;;4992220;28;20211;-85
2022/07/09 00:17:35;;;;;;;1.83;1.17;;;17.60;99.90;;;;;;5008443;28;20655;-85
2022/07/09 00:20:04;;;;;;;7.97;2.50;;;17.70;99.90;;;;;;4992605;28;20203;-85
2022/07/09 00:22:31;;;;;;;3.67;1.90;;;17.60;99.90;;;;;;4976891;28;20247;-85
2022/07/09 00:24:58;;;;;;;4.87;1.87;;;17.60;99.90;;;;;;5008102;28;20222;-86
2022/07/09 00:27:23;;;;;;;4.20;1.63;;;17.70;99.90;;;;;;5001254;28;20203;-86
2022/07/09 00:29:49;;;;;;;4.03;1.70;;;17.60;99.90;;;;;;4975900;28;20666;-86
2022/07/09 00:32:15;;;;;;;9.97;1.53;;;17.60;99.90;;;;;;4975764;28;20188;-86
2022/07/09 00:34:40;;;;;;;8.43;1.80;;;17.60;99.90;;;;;;5009295;28;20211;-85
2022/07/09 00:37:06;;;;;;;7.50;1.57;;;17.60;99.90;;;;;;4975816;28;20219;-85
2022/07/09 00:39:32;;;;;;;4.33;1.87;;;17.70;99.90;;;;;;4991735;28;20246;-86
2022/07/09 00:42:04;;;;;;;5.80;1.83;;;17.60;99.90;;;;;;4992084;28;20575;-85
2022/07/09 00:44:30;;;;;;;5.00;1.50;;;17.70;99.90;;;;;;5008667;28;20285;-85
2022/07/09 00:46:56;;;;;;;2.60;1.20;;;17.70;99.90;;;;;;5025318;28;20298;-85
2022/07/09 00:49:22;;;;;;;3.90;1.50;;;17.70;99.90;;;;;;4999824;28;20218;-85
2022/07/09 00:51:48;;;;;;;4.73;1.53;;;17.70;99.90;;;;;;4983337;28;20289;-86
2022/07/09 00:54:14;;;;;;;1.20;1.00;;;17.70;99.90;;;;;;4992677;28;20694;-86
2022/07/09 00:56:40;;;;;;;4.10;2.53;;;17.70;99.90;;;;;;4975809;28;20554;-86
2022/07/09 00:59:10;;;;;;;4.47;1.63;;;17.70;99.90;;;;;;4992827;28;20278;-86
2022/07/09 01:01:36;;;;;;;1.90;1.10;;;17.70;99.90;;;;;;4976230;28;20212;-85
2022/07/09 01:04:02;;;;;;;2.17;1.30;;;17.70;99.90;;;;;;4983532;28;20583;-85
2022/07/09 01:06:28;;;;;;;1.30;1.20;;;17.70;99.90;;;;;;4991845;28;20648;-86
2022/07/09 01:08:54;;;;;;;3.17;2.07;;;17.60;99.90;;;;;;4983822;28;20251;-86
2022/07/09 01:11:19;;;;;;;5.07;1.13;;;17.60;99.90;;;;;;4976095;28;20282;-85
2022/07/09 01:13:46;;;;;;;4.73;1.27;;;17.60;99.90;;;;;;4983623;28;20215;-85
2022/07/09 01:16:13;;;;;;;2.43;1.00;;;17.60;99.90;;;;;;5010752;28;20692;-86
2022/07/09 01:18:39;;;;;;;1.40;1.10;;;17.60;99.90;;;;;;5003841;28;20298;-85
2022/07/09 01:21:05;;;;;;;1.40;1.30;;;17.60;99.90;;;;;;4978780;28;20299;-85
2022/07/09 01:23:31;;;;;;;7.67;2.20;;;17.50;99.90;;;;;;4978768;28;20215;-85
2022/07/09 01:25:58;;;;;;;4.37;2.10;;;17.50;99.90;;;;;;5012166;28;20207;-85
2022/07/09 01:28:24;;;;;;;3.27;1.70;;;17.50;99.90;;;;;;4978603;28;20208;-86
2022/07/09 01:30:50;;;;;;;5.40;2.20;;;17.50;99.90;;;;;;5011998;28;20241;-85
2022/07/09 01:33:16;;;;;;;4.90;1.83;;;17.50;99.90;;;;;;4994015;28;20243;-85
2022/07/09 01:35:41;;;;;;;3.77;1.30;;;17.50;99.90;;;;;;5002397;28;20199;-85
2022/07/09 01:38:07;;;;;;;1.40;1.10;;;17.50;99.90;;;;;;4987883;28;20200;-85
2022/07/09 01:40:33;;;;;;;4.07;1.47;;;17.50;99.90;;;;;;4994378;28;20577;-85
2022/07/09 01:42:58;;;;;;;2.90;1.80;;;17.50;99.90;;;;;;4994342;28;20219;-85
2022/07/09 01:45:24;;;;;;;1.97;1.70;;;17.40;99.90;;;;;;5010906;28;20249;-85
2022/07/09 01:47:50;;;;;;;2.60;1.33;;;17.40;99.90;;;;;;5011624;28;20199;-85
2022/07/09 01:50:16;;;;;;;2.77;1.27;;;17.40;99.90;;;;;;4986253;28;20230;-85
2022/07/09 01:52:42;;;;;;;1.83;1.50;;;17.40;99.90;;;;;;5011850;28;20303;-85
2022/07/09 01:55:07;;;;;;;2.37;1.27;;;17.40;99.90;;;;;;5010528;28;20216;-85
2022/07/09 01:57:33;;;;;;;11.47;2.00;;;17.30;99.90;;;;;;4994846;28;20758;-85
2022/07/09 01:59:59;;;;;;;2.37;1.70;;;17.30;99.90;;;;;;5019172;28;20207;-85
2022/07/09 02:02:25;;;;;;;1.67;1.57;;;17.40;99.90;;;;;;5010946;28;20249;-85
2022/07/09 02:04:51;;;;;;;3.50;1.27;;;17.40;99.90;;;;;;5010679;28;20215;-85
2022/07/09 02:07:17;;;;;;;1.73;1.43;;;17.40;99.90;;;;;;5002142;28;20236;-85
2022/07/09 02:09:42;;;;;;;2.00;1.43;;;17.40;99.90;;;;;;5010536;28;20297;-85
2022/07/09 02:12:08;;;;;;;2.30;1.57;;;17.50;99.90;;;;;;5001288;28;20208;-85
2022/07/09 02:14:34;;;;;;;2.70;1.33;;;17.50;99.90;;;;;;4994317;28;20739;-85
2022/07/09 02:17:00;;;;;;;5.93;1.90;;;17.50;99.90;;;;;;4984068;28;20208;-85
2022/07/09 02:19:25;;;;;;;2.37;1.60;;;17.50;99.90;;;;;;4978052;28;20218;-85
2022/07/09 02:21:51;;;;;;;4.70;2.03;;;17.50;99.90;;;;;;4977985;28;20708;-85
2022/07/09 02:24:17;;;;;;;5.37;1.87;;;17.50;99.90;;;;;;4993705;28;20664;-85
2022/07/09 02:26:43;;;;;;;2.20;1.90;;;17.50;99.90;;;;;;5009041;28;20318;-85
2022/07/09 02:29:09;;;;;;;3.27;1.03;;;17.50;99.90;;;;;;4969889;28;20278;-85
2022/07/09 02:31:34;;;;;;;4.50;2.00;;;17.50;99.90;;;;;;4993164;28;20707;-84
2022/07/09 02:34:00;;;;;;;4.53;1.23;;;17.50;99.90;;;;;;5009584;28;20782;-86
2022/07/09 02:36:26;;;;;;;0.93;0.80;;;17.50;99.90;;;;;;4993538;28;20210;-85
2022/07/09 02:38:52;;;;;;;6.27;1.50;;;17.40;99.90;;;;;;4994634;28;20222;-86
2022/07/09 02:41:17;;;;;;;3.77;1.40;;;17.40;99.90;;;;;;5004653;28;20191;-86
2022/07/09 02:43:43;;;;;;;5.27;1.93;;;17.40;99.90;;;;;;4977506;28;20633;-86
2022/07/09 02:46:10;;;;;;;5.27;1.50;;;17.40;99.90;;;;;;4977522;28;20223;-86
2022/07/09 02:48:36;;;;;;;3.20;1.23;;;17.40;99.90;;;;;;5026773;28;20302;-86
2022/07/09 02:51:03;;;;;;;3.93;1.60;;;17.40;99.90;;;;;;4984619;28;20778;-85
2022/07/09 02:53:29;;;;;;;3.20;1.33;;;17.40;99.90;;;;;;5010592;28;20191;-85
2022/07/09 02:55:55;;;;;;;3.23;1.67;;;17.40;99.90;;;;;;4993366;28;20915;-86
2022/07/09 02:58:21;;;;;;;3.37;1.50;;;17.40;99.90;;;;;;5009770;28;20590;-86
2022/07/09 03:00:47;;;;;;;4.27;1.60;;;17.40;99.90;;;;;;5009154;28;20227;-86
2022/07/09 03:03:13;;;;;;;3.20;1.60;;;17.40;99.90;;;;;;5009013;28;20242;-86
2022/07/09 03:05:38;;;;;;;5.13;1.80;;;17.40;99.90;;;;;;5002331;28;20180;-85
2022/07/09 03:08:05;;;;;;;2.37;1.57;;;17.40;99.90;;;;;;4976890;28;20744;-85
2022/07/09 03:10:31;;;;;;;3.20;1.57;;;17.40;99.90;;;;;;5009681;28;20223;-85
2022/07/09 03:12:56;;;;;;;2.50;1.70;;;17.40;99.90;;;;;;4993609;28;20322;-85
2022/07/09 03:15:22;;;;;;;4.00;1.77;;;17.40;99.90;;;;;;4976965;28;20305;-85
2022/07/09 03:17:48;;;;;;;2.83;1.20;;;17.30;99.90;;;;;;5009264;28;20225;-85
2022/07/09 03:20:14;;;;;;;2.30;1.47;;;17.30;99.90;;;;;;5002116;28;20189;-85
2022/07/09 03:22:41;;;;;;;4.67;2.10;;;17.30;99.90;;;;;;5017134;28;20314;-85
2022/07/09 03:25:07;;;;;;;4.67;1.40;;;17.30;99.90;;;;;;5000021;28;20216;-85
2022/07/09 03:27:34;;;;;;;2.10;1.40;;;17.30;99.90;;;;;;5009226;28;20203;-85
2022/07/09 03:29:59;;;;;;;2.43;1.40;;;17.30;99.90;;;;;;5009353;28;20215;-85
2022/07/09 03:32:26;;;;;;;3.63;1.67;;;17.30;99.90;;;;;;4986011;28;20191;-85
2022/07/09 03:34:54;;;;;;;2.60;1.43;;;17.40;99.90;;;;;;5001752;28;20216;-85
2022/07/09 03:37:20;;;;;;;4.77;1.40;;;17.40;99.90;;;;;;4992576;28;21176;-86
2022/07/09 03:39:47;;;;;;;3.00;1.67;;;17.40;99.90;;;;;;5009003;28;20222;-85
2022/07/09 03:42:13;;;;;;;2.70;1.70;;;17.40;99.90;;;;;;4992035;28;20222;-85
2022/07/09 03:44:39;;;;;;;1.53;1.30;;;17.40;99.90;;;;;;5001680;28;20191;-85
2022/07/09 03:47:06;;;;;;;3.73;1.13;;;17.40;99.90;;;;;;4993017;28;20210;-85
2022/07/09 03:49:32;;;;;;;4.13;1.67;;;17.40;99.90;;;;;;5001235;28;20212;-85
2022/07/09 03:51:58;;;;;;;4.60;1.43;;;17.50;99.90;;;;;;5025280;28;20226;-85
2022/07/09 03:54:24;;;;;;;3.23;1.60;;;17.50;99.90;;;;;;4992515;28;20210;-85
2022/07/09 03:56:51;;;;;;;2.97;1.70;;;17.50;99.90;;;;;;4992673;28;20274;-85
2022/07/09 03:59:17;;;;;;;2.93;1.80;;;17.50;99.90;;;;;;5000962;28;20183;-85
2022/07/09 04:01:43;;;;;;;1.40;1.10;;;17.50;99.90;;;;;;5001171;28;20219;-84
2022/07/09 04:04:09;;;;;;;2.07;1.33;;;17.50;99.90;;;;;;5002276;28;20212;-84
2022/07/09 04:06:35;;;;;;;3.00;1.70;;;17.50;99.90;;;;;;4983402;28;20263;-84
2022/07/09 04:09:04;;;;;;;4.50;1.73;;;17.50;99.90;;;;;;5025464;28;20302;-84
2022/07/09 04:11:34;;;;;;;2.80;1.60;;;17.60;99.90;;;;;;5001245;28;20207;-84
2022/07/09 04:14:00;;;;;;;1.73;1.30;;;17.60;99.90;;;;;;4981252;28;20205;-84
2022/07/09 04:16:26;;;;;;;3.70;1.37;;;17.50;99.90;;;;;;4979259;28;20208;-84
2022/07/09 04:18:52;;;;;;;1.57;1.33;;;17.50;99.90;;;;;;4964976;28;20637;-84
2022/07/09 04:21:18;;;;;;;2.40;1.30;;;17.60;99.90;;;;;;4980199;28;20240;-85
2022/07/09 04:23:44;;;;;;;2.30;2.10;;;17.60;99.90;;;;;;4965115;28;20633;-84
2022/07/09 04:26:09;;;;;;;2.13;1.43;;;17.60;99.90;;;;;;4966030;28;20180;-85
2022/07/09 04:28:36;;;;;;;3.40;1.73;;;17.60;99.90;;;;;;5005209;28;20635;-84
2022/07/09 04:31:02;;;;;;;5.07;1.53;;;17.70;99.90;;;;;;5000503;28;20208;-84
2022/07/09 04:33:28;;;;;;;1.70;1.20;;;17.70;99.90;;;;;;4983810;28;20580;-84
2022/07/09 04:35:54;;;;;;;1.63;1.27;;;17.70;99.90;;;;;;4991672;28;20215;-84
2022/07/09 04:38:19;;;;;;;2.10;1.33;;;17.70;99.90;;;;;;5024672;28;20202;-84
2022/07/09 04:40:45;;;;;;;3.80;1.43;;;17.80;99.90;;;;;;5015495;28;20223;-84
2022/07/09 04:43:11;;;;;;;4.50;1.63;;;17.80;99.90;;;;;;4983019;28;20696;-83
2022/07/09 04:45:36;;;;;;;2.37;1.83;;;17.80;99.90;;;;;;5008231;28;20215;-84
2022/07/09 04:48:03;;;;;;;3.10;1.50;;;17.90;99.90;;;;;;5008451;28;20215;-84
2022/07/09 04:50:28;;;;;;;2.23;1.20;;;17.90;99.90;;;;;;5019603;28;20214;-84
2022/07/09 04:52:54;;;;;;;1.70;1.47;;;18.00;99.90;;;;;;5011655;28;20219;-84
2022/07/09 04:55:21;;;;;;;3.27;1.47;;;18.00;99.90;;;;;;4995200;28;20266;-84
2022/07/09 04:57:47;;;;;;;1.37;0.97;;;18.00;99.90;;;;;;5005066;28;20617;-84
2022/07/09 05:00:15;;;;;;;1.50;1.10;;;18.10;99.90;;;;;;5003875;28;20578;-84
2022/07/09 05:02:42;;;;;;;5.03;2.07;;;18.10;99.90;;;;;;5003374;28;20212;-84
2022/07/09 05:05:08;;;;;;;2.33;1.40;;;18.10;99.90;;;;;;5020243;28;20196;-83
2022/07/09 05:07:34;;;;;;;3.40;1.67;;;18.10;99.90;;;;;;5011541;28;20242;-84
2022/07/09 05:10:01;;;;;;;2.17;0.90;;;18.10;99.90;;;;;;5011422;28;20220;-83
2022/07/09 05:12:27;;;;;;;3.93;1.67;;;18.10;99.90;;;;;;5005224;28;20200;-85
2022/07/09 05:14:54;;;;;;;1.60;0.90;;;18.10;99.90;;;;;;5011216;28;20214;-84
2022/07/09 05:17:20;;;;;;;4.53;1.67;;;18.10;99.90;;;;;;5011570;28;20211;-84
2022/07/09 05:19:46;;;;;;;2.83;1.50;;;18.10;99.90;;;;;;5004076;28;20726;-84
2022/07/09 05:22:11;;;;;;;7.83;1.33;;;18.00;99.90;;;;;;4994730;28;20259;-84
2022/07/09 05:24:37;;;;;;;1.17;0.87;;;18.00;99.90;;;;;;5003686;28;20227;-85
2022/07/09 05:27:04;;;;;;;3.60;1.40;;;18.10;99.90;;;;;;4994616;28;20294;-83
2022/07/09 05:29:30;;;;;;;2.60;1.00;;;18.10;99.90;;;;;;5003754;28;20243;-83
2022/07/09 05:31:57;;;;;;;1.73;1.63;;;18.10;99.90;;;;;;5010828;28;20216;-84
2022/07/09 05:34:24;;;;;;;2.10;1.03;;;18.20;99.90;;;;;;5002928;28;20227;-85
2022/07/09 05:36:51;;;;;;;2.20;1.20;;;18.20;99.90;;;;;;5004291;28;20220;-84
2022/07/09 05:39:18;;;;;;;1.97;1.00;;;18.20;99.90;;;;;;5011653;28;20305;-84
2022/07/09 05:41:44;;;;;;;1.40;1.23;;;18.20;99.90;;;;;;5001994;28;20192;-83
2022/07/09 05:44:10;;;;;;;1.57;0.90;;;18.10;99.90;;;;;;5004147;28;20199;-84
2022/07/09 05:46:36;;;;;;;4.93;1.40;;;18.10;99.90;;;;;;5002834;28;20246;-84
2022/07/09 05:49:02;;;;;;;1.20;1.10;;;18.10;99.90;;;;;;5003710;28;20687;-86
2022/07/09 05:51:28;;;;;;;6.83;1.30;;;18.10;99.90;;;;;;5027568;28;20963;-84
2022/07/09 05:53:54;;;;;;;2.17;1.10;;;18.20;99.90;;;;;;5005162;28;20306;-84
2022/07/09 05:56:20;;;;;;;3.00;1.43;;;18.20;99.90;;;;;;5003574;28;20625;-84
2022/07/09 05:58:46;;;;;;;1.73;1.53;;;18.20;99.90;;;;;;5027476;28;20219;-87
2022/07/09 06:01:13;;;;;;;1.47;1.30;;;18.30;99.90;;;;;;5018080;28;20307;-83
2022/07/09 06:03:40;;;;;;;2.80;1.30;;;18.30;99.90;;;;;;5003710;28;20290;-84
2022/07/09 06:06:05;;;;;;;1.10;0.70;;;18.30;99.90;;;;;;5010824;28;20326;-85
2022/07/09 06:08:33;;;;;;;3.23;1.20;;;18.30;99.90;;;;;;4994680;28;20656;-85
2022/07/09 06:10:59;;;;;;;2.60;1.07;;;18.30;99.90;;;;;;4984195;28;20638;-84
2022/07/09 06:13:25;;;;;;;1.20;1.10;;;18.30;99.90;;;;;;4974186;28;20220;-84
2022/07/09 06:15:52;;;;;;;6.13;1.53;;;18.50;99.90;;;;;;4984253;28;20223;-84
2022/07/09 06:18:18;;;;;;;1.27;1.07;;;18.70;99.90;;;;;;4990558;28;20220;-83
2022/07/09 06:20:44;;;;;;;5.27;1.30;;;18.70;99.90;;;;;;4983939;28;20196;-84
2022/07/09 06:23:10;;;;;;;4.93;1.23;;;18.80;99.90;;;;;;4975139;28;20205;-85
2022/07/09 06:25:37;;;;;;;3.57;1.33;;;18.80;99.90;;;;;;4974620;28;20212;-84
2022/07/09 06:28:03;;;;;;;3.90;1.10;;;18.80;99.90;;;;;;4982399;28;20283;-85
2022/07/09 06:30:29;;;;;;;5.07;1.10;;;18.70;99.90;;;;;;4992343;28;20221;-87
2022/07/09 06:32:55;;;;;;;1.70;0.90;;;18.70;99.90;;;;;;5004753;28;20299;-89
2022/07/09 06:35:24;;;;;;;4.87;1.63;;;18.80;99.90;;;;;;5012190;28;20214;-90
2022/07/09 06:37:55;;;;;;;2.73;1.10;;;18.70;99.90;;;;;;5019802;28;20212;-90
2022/07/09 06:40:21;;;;;;;3.50;1.27;;;18.80;99.90;;;;;;5011948;28;20585;-87
2022/07/09 06:42:46;;;;;;;2.70;0.90;;;18.90;99.90;;;;;;4985996;28;20227;-88
2022/07/09 06:45:14;;;;;;;4.10;1.23;;;18.70;99.90;;;;;;4986484;28;20215;-90
2022/07/09 06:47:40;;;;;;;4.47;1.10;;;18.50;99.90;;;;;;4995386;28;20239;-88
2022/07/09 06:50:09;;;;;;;5.73;1.37;;;18.30;99.90;;;;;;5011713;28;20635;-87
2022/07/09 06:52:35;;;;;;;3.57;0.80;;;18.20;99.90;;;;;;5003399;28;20294;-89
2022/07/09 06:55:01;;;;;;;2.17;1.00;;;18.20;99.90;;;;;;5010125;28;20654;-86
2022/07/09 06:57:28;;;;;;;2.53;1.57;;;18.40;99.90;;;;;;4994422;28;20207;-86
2022/07/09 06:59:54;;;;;;;2.13;0.80;;;18.30;99.90;;;;;;5002905;28;20668;-87
2022/07/09 07:02:20;;;;;;;6.60;1.50;;;18.40;99.90;;;;;;4985229;28;20207;-87
2022/07/09 07:04:45;;;;;;;4.30;0.93;;;18.50;99.90;;;;;;4993078;28;20212;-87
2022/07/09 07:07:11;;;;;;;2.70;1.30;;;18.60;99.90;;;;;;4988591;28;20293;-87
2022/07/09 07:09:37;;;;;;;3.93;1.03;;;18.80;99.90;;;;;;5025693;28;20917;-86
2022/07/09 07:12:04;;;;;;;1.63;1.07;;;19.00;99.90;;;;;;5008602;28;20207;-87
2022/07/09 07:14:29;;;;;;;2.30;1.07;;;19.10;99.90;;;;;;5004834;28;20184;-87
2022/07/09 07:16:55;;;;;;;2.17;0.87;;;19.50;99.90;;;;;;4994308;28;20211;-89
2022/07/09 07:19:21;;;;;;;2.40;1.10;;;19.70;99.90;;;;;;4988154;28;20226;-88
2022/07/09 07:21:48;;;;;;;1.57;0.67;;;19.70;99.90;;;;;;4984793;28;20337;-88
2022/07/09 07:24:13;;;;;;;1.57;0.63;;;20.00;99.90;;;;;;5009965;28;20222;-87
2022/07/09 07:26:39;;;;;;;2.73;0.80;;;20.50;99.90;;;;;;4993178;28;20192;-90
2022/07/09 07:29:05;;;;;;;2.40;1.10;;;20.10;99.90;;;;;;5010710;28;20544;-87
2022/07/09 07:31:31;;;;;;;1.37;0.83;;;20.50;99.90;;;;;;4987147;28;20290;-86
2022/07/09 07:33:57;;;;;;;2.73;1.10;;;20.60;99.90;;;;;;5002220;28;20387;-87
2022/07/09 07:36:23;;;;;;;1.83;0.90;;;20.40;99.90;;;;;;5008696;28;20234;-86
2022/07/09 07:38:49;;;;;;;2.30;1.17;;;20.20;99.90;;;;;;4985802;28;20278;-85
2022/07/09 07:41:18;;;;;;;2.53;0.60;;;20.00;99.90;;;;;;4994135;28;20192;-87
2022/07/09 07:43:44;;;;;;;2.40;1.40;;;20.10;99.90;;;;;;5003609;28;20243;-86
2022/07/09 07:46:10;;;;;;;2.67;1.43;;;20.60;99.90;;;;;;5001126;28;20215;-86
2022/07/09 07:48:36;;;;;;;1.60;1.10;;;20.40;99.90;;;;;;4985705;28;20746;-85
2022/07/09 07:51:03;;;;;;;0.90;0.90;;;20.30;99.90;;;;;;5002382;28;20204;-85
2022/07/09 07:53:31;;;;;;;3.60;1.00;;;20.20;99.90;;;;;;5002267;28;20195;-86
2022/07/09 07:55:58;;;;;;;3.27;1.13;;;20.40;99.90;;;;;;5010695;28;20215;-85
2022/07/09 07:58:24;;;;;;;1.03;0.90;;;20.00;99.90;;;;;;5000756;28;20306;-85
2022/07/09 08:00:49;;;;;;;5.10;2.03;;;20.80;99.90;;;;;;4993410;28;20309;-85
2022/07/09 08:03:15;;;;;;;2.77;0.97;;;21.30;99.90;;;;;;4985506;28;20845;-85
2022/07/09 08:05:41;;;;;;;0.80;0.57;;;21.20;99.90;;;;;;4986671;28;20652;-86
2022/07/09 08:08:07;;;;;;;6.90;1.27;;;20.70;99.90;;;;;;4992285;28;20247;-85
2022/07/09 08:10:32;;;;;;;2.43;1.10;;;21.20;99.90;;;;;;4999948;28;20590;-86
2022/07/09 08:12:58;;;;;;;1.83;1.00;;;20.70;99.90;;;;;;4993304;28;20229;-85
2022/07/09 08:15:24;;;;;;;1.33;1.07;;;21.00;99.90;;;;;;5007863;28;20216;-88
2022/07/09 08:17:50;;;;;;;4.70;0.90;;;21.90;99.90;;;;;;4999486;28;20184;-87
2022/07/09 08:20:15;;;;;;;4.05;1.65;;;21.90;99.90;;;;;;4993611;28;20183;-86
2022/07/09 08:22:41;;;;;;;3.17;0.95;;;22.00;99.90;;;;;;4992187;28;20314;-84
2022/07/09 08:25:07;;;;;;;2.65;1.42;;;22.10;99.90;;;;;;5008330;28;20224;-85
2022/07/09 08:27:33;;;;;;;1.80;1.08;;;22.70;99.90;;;;;;5000366;28;20230;-84
2022/07/09 08:29:59;;;;;;;3.92;1.02;;;22.50;99.90;;;;;;5008071;28;20208;-84
2022/07/09 08:32:24;;;;;;;1.00;0.90;;;21.80;99.90;;;;;;5000987;28;20183;-84
2022/07/09 08:34:50;;;;;;;7.28;1.65;;;21.20;99.90;;;;;;4991469;28;20229;-84
2022/07/09 08:37:16;;;;;;;5.05;1.35;;;21.70;99.90;;;;;;4998657;28;20218;-83
2022/07/09 08:39:41;;;;;;;2.17;1.00;;;21.20;99.90;;;;;;4991272;28;20207;-84
2022/07/09 08:42:09;;;;;;;3.45;1.23;;;21.50;99.90;;;;;;5008831;28;20219;-85
2022/07/09 08:44:38;;;;;;;0.85;0.82;;;22.30;99.90;;;;;;5000024;28;20184;-84
2022/07/09 08:47:05;;;;;;;4.20;1.05;;;21.70;99.90;;;;;;5001105;28;20199;-85
2022/07/09 08:49:31;;;;;;;1.60;0.75;;;21.10;99.90;;;;;;5008077;28;20607;-85
2022/07/09 08:51:57;;;;;;;1.35;1.08;;;21.10;99.90;;;;;;5008550;28;20227;-84
2022/07/09 08:54:23;;;;;;;3.63;1.40;;;21.90;99.90;;;;;;4983363;28;20215;-85
2022/07/09 08:56:52;;;;;;;1.25;1.08;;;21.10;99.90;;;;;;5023868;28;20714;-84
2022/07/09 08:59:18;;;;;;;4.13;1.40;;;20.30;99.90;;;;;;5001184;28;20218;-85
2022/07/09 09:01:44;;;;;;;3.70;1.80;;;20.10;99.90;;;;;;5008535;28;20245;-85
2022/07/09 09:04:10;;;;;;;1.50;1.00;;;20.10;99.90;;;;;;4998194;28;20207;-85
2022/07/09 09:06:37;;;;;;;1.50;0.97;;;19.90;99.90;;;;;;5001732;28;20273;-86
2022/07/09 09:09:03;;;;;;;2.23;0.93;;;19.90;99.90;;;;;;5000408;28;20673;-85
2022/07/09 09:11:31;;;;;;;1.47;1.20;;;20.10;99.90;;;;;;4992241;28;20194;-85
2022/07/09 09:13:57;;;;;;;7.20;2.13;;;20.50;99.90;;;;;;4983870;28;20969;-84
2022/07/09 09:16:23;;;;;;;1.67;1.00;;;20.50;99.90;;;;;;5024748;28;20207;-85
2022/07/09 09:18:51;;;;;;;3.23;1.63;;;20.00;99.90;;;;;;5017267;28;20225;-84
2022/07/09 09:21:20;;;;;;;2.83;1.90;;;19.90;99.90;;;;;;4998953;28;20222;-85
2022/07/09 09:23:47;;;;;;;5.30;1.50;;;20.30;99.90;;;;;;5007950;28;20203;-85
2022/07/09 09:26:15;;;;;;;3.40;1.53;;;20.50;99.90;;;;;;5000428;28;20216;-85
2022/07/09 09:28:57;;;;;;;3.53;1.43;;;20.30;99.90;;;;;;5016029;28;20218;-86
2022/07/09 09:31:30;;;;;;;0.40;0.40;;;20.30;99.90;;;;;;5000612;28;20211;-86
2022/07/09 09:34:08;;;;;;;1.30;1.20;;;19.80;99.90;;;;;;5000480;28;20224;-86
2022/07/09 09:36:42;;;;;;;2.63;1.60;;;19.30;99.90;;;;;;5002591;28;20211;-86
2022/07/09 09:39:18;;;;;;;1.47;1.23;;;18.70;99.90;;;;;;5028651;28;20730;-87
2022/07/09 09:41:54;;;;;;;2.97;1.20;;;18.70;99.90;;;;;;5012006;28;20183;-86
2022/07/09 09:44:26;;;;;;;2.27;2.03;;;18.70;99.90;;;;;;5004432;28;20196;-85
2022/07/09 09:46:53;;;;;;;5.10;1.30;;;18.60;99.90;;;;;;5002139;28;20231;-86
2022/07/09 09:49:19;;;;;;;4.97;1.33;;;18.40;99.90;;;;;;4988340;28;20227;-85
2022/07/09 09:52:02;;;;;;;2.77;1.27;;;18.30;99.90;;;;;;5002356;28;20212;-85
2022/07/09 09:54:30;;;;;;;2.77;1.23;;;18.30;99.90;;;;;;5003865;28;20241;-85
2022/07/09 09:56:59;;;;;;;2.77;1.30;;;18.40;99.90;;;;;;5003163;28;21026;-85
2022/07/09 09:59:26;;;;;;;2.03;0.97;;;18.80;99.90;;;;;;4987047;28;20235;-84
2022/07/09 10:01:52;;;;;;;2.20;0.80;;;18.90;99.90;;;;;;5011625;28;20273;-84
2022/07/09 10:04:18;;;;;;;3.30;1.43;;;19.00;99.90;;;;;;5011385;28;20743;-85
2022/07/09 10:06:44;;;;;;;11.30;1.33;;;18.70;99.90;;;;;;5005939;28;20271;-84
2022/07/09 10:09:15;;;;;;;6.03;0.90;;;18.70;99.90;;;;;;5004684;28;20227;-85
2022/07/09 10:11:46;;;;;;;3.63;1.43;;;19.20;99.90;;;;;;5002969;28;20275;-86
2022/07/09 10:14:39;;;;;;;0.97;0.80;;;19.50;99.90;;;;;;5004922;28;20592;-86
2022/07/09 10:17:15;;;;;;;3.70;0.90;;;19.20;99.90;;;;;;4986198;28;20211;-87
2022/07/09 10:20:01;;;;;;;1.40;0.37;;;19.20;99.90;;;;;;5002319;28;20210;-87
2022/07/09 10:22:41;;;;;;;2.30;0.93;;;19.20;99.90;;;;;;5026367;28;20307;-87
2022/07/09 10:25:09;;;;;;;1.80;0.97;;;19.40;99.90;;;;;;4995241;28;20218;-86
2022/07/09 10:27:46;;;;;;;0.37;0.37;;;19.20;99.90;;;;;;5003688;28;20298;-85
2022/07/09 10:30:30;;;;;;;0.70;0.70;;;19.00;99.90;;;;;;5002720;28;20588;-86
2022/07/09 10:33:35;;;;;;;5.33;1.03;;;18.80;99.90;;;;;;5002219;28;20343;-87
2022/07/09 10:36:17;;;;;;;0.73;0.50;;;19.10;99.90;;;;;;5002706;28;20224;-85
2022/07/09 10:38:57;;;;;;;4.20;0.97;;;19.40;99.90;;;;;;5003725;28;20198;-86
2022/07/09 10:41:23;;;;;;;1.27;1.10;;;19.60;99.90;;;;;;5004544;28;20179;-85
2022/07/09 10:43:51;;;;;;;0.60;0.60;;;19.50;99.90;;;;;;4986729;28;20722;-85
2022/07/09 10:46:16;;;;;;;4.00;0.87;;;19.70;99.90;;;;;;5002304;28;20223;-87
2022/07/09 10:48:46;;;;;;;4.70;0.70;;;19.50;99.90;;;;;;4994685;28;20211;-86
2022/07/09 10:51:19;;;;;;;0.97;0.83;;;19.30;99.90;;;;;;5001617;28;20647;-86
2022/07/09 10:53:45;;;;;;;2.50;1.00;;;19.10;99.90;;;;;;4989111;28;20239;-86
2022/07/09 10:56:16;;;;;;;3.40;0.70;;;19.20;99.90;;;;;;5020244;28;20714;-87
2022/07/09 10:58:46;;;;;;;1.23;0.70;;;19.30;99.90;;;;;;5002222;28;20687;-89
2022/07/09 11:01:24;;;;;;;0.80;0.47;;;19.60;99.90;;;;;;5010498;28;20714;-85
2022/07/09 11:03:51;;;;;;;2.67;0.50;;;20.30;99.90;;;;;;5004667;28;20715;-85
2022/07/09 11:06:17;;;;;;;1.03;0.50;;;19.80;99.90;;;;;;5028136;28;20222;-86
2022/07/09 11:08:43;;;;;;;0.63;0.63;;;19.60;99.90;;;;;;5003384;28;20199;-86
2022/07/09 11:11:09;;;;;;;2.17;0.70;;;19.30;99.90;;;;;;5004660;28;20176;-86
2022/07/09 11:13:35;;;;;;;0.50;0.50;;;19.70;99.90;;;;;;5002833;28;20218;-87
2022/07/09 11:16:01;;;;;;;0.70;0.60;;;19.60;99.90;;;;;;4987357;28;20217;-86
2022/07/09 11:18:28;;;;;;;1.60;0.80;;;19.70;99.90;;;;;;5001590;28;20213;-85
2022/07/09 11:20:54;;;;;;;2.00;0.87;;;19.40;99.90;;;;;;5010527;28;20679;-86
2022/07/09 11:23:20;;;;;;;2.00;0.63;;;19.40;99.90;;;;;;5004837;28;20204;-85
2022/07/09 11:25:46;;;;;;;3.80;1.07;;;19.50;99.90;;;;;;4983987;28;20219;-85
2022/07/09 11:28:23;;;;;;;1.63;0.70;;;19.80;99.90;;;;;;5002763;28;20565;-85
2022/07/09 11:31:04;;;;;;;2.20;0.63;;;19.80;99.90;;;;;;5000667;28;20215;-84
2022/07/09 11:36:16;;;;;;;2.20;0.40;;;20.00;99.90;;;;;;5016858;28;20577;-85
2022/07/09 11:38:49;;;;;;;6.13;0.80;;;19.80;99.90;;;;;;5025589;28;20192;-85
2022/07/09 11:41:15;;;;;;;0.73;0.30;;;19.70;99.90;;;;;;5011110;28;20191;-86
2022/07/09 11:43:47;;;;;;;1.47;0.80;;;19.60;99.90;;;;;;4983356;28;20220;-85
2022/07/09 11:46:16;;;;;;;2.40;0.93;;;19.70;99.90;;;;;;5018263;28;20212;-85
2022/07/09 11:48:52;;;;;;;1.07;0.80;;;19.70;99.90;;;;;;5011582;28;20208;-85
2022/07/09 11:51:32;;;;;;;2.30;0.90;;;19.60;99.90;;;;;;4978485;28;20302;-85
2022/07/09 11:53:58;;;;;;;3.07;0.80;;;19.40;99.90;;;;;;5008788;28;20211;-85
2022/07/09 11:56:24;;;;;;;2.83;0.93;;;19.70;99.90;;;;;;5009594;28;20191;-86
2022/07/09 11:58:51;;;;;;;1.90;0.47;;;19.80;99.90;;;;;;4993233;28;20222;-85
2022/07/09 12:01:17;;;;;;;1.07;0.40;;;19.60;99.90;;;;;;5009862;28;20215;-85
2022/07/09 12:03:50;;;;;;;5.23;0.73;;;19.60;99.90;;;;;;4993304;28;20237;-84
2022/07/09 12:06:16;;;;;;;1.30;0.73;;;19.40;99.90;;;;;;4993667;28;20235;-84
2022/07/09 12:08:42;;;;;;;2.67;1.13;;;19.60;99.90;;;;;;5002285;28;20195;-85
2022/07/09 12:11:08;;;;;;;0.77;0.43;;;19.80;99.90;;;;;;5002529;28;20257;-84
2022/07/09 12:13:33;;;;;;;1.07;0.47;;;19.50;99.90;;;;;;4968283;28;20217;-86
2022/07/09 12:15:59;;;;;;;0.60;0.40;;;19.60;99.90;;;;;;4971593;28;20694;-83
2022/07/09 12:18:25;;;;;;;0.50;0.50;;;20.00;99.90;;;;;;4999750;28;20254;-85
2022/07/09 12:20:50;;;;;;;0.40;0.40;;;19.90;99.90;;;;;;4992725;28;20207;-87
2022/07/09 12:23:16;;;;;;;1.87;0.60;;;19.80;99.90;;;;;;4993019;28;21168;-86
2022/07/09 12:25:43;;;;;;;2.37;0.93;;;19.70;99.90;;;;;;5000058;28;20223;-85
2022/07/09 12:28:09;;;;;;;3.13;0.93;;;19.50;99.90;;;;;;5025226;28;20323;-86
2022/07/09 12:30:34;;;;;;;0.80;0.50;;;19.90;99.90;;;;;;5007688;28;20303;-86
2022/07/09 12:33:00;;;;;;;2.20;0.83;;;19.80;99.90;;;;;;4973337;28;20195;-85
2022/07/09 12:35:27;;;;;;;1.60;0.53;;;19.40;99.90;;;;;;5000514;28;20306;-86
2022/07/09 12:37:53;;;;;;;0.70;0.70;;;19.40;99.90;;;;;;5008496;28;20239;-86
2022/07/09 12:40:19;;;;;;;2.43;0.87;;;19.00;99.90;;;;;;5003718;28;20227;-85
2022/07/09 12:42:45;;;;;;;4.17;1.47;;;19.40;99.90;;;;;;5002609;28;20245;-85
2022/07/09 12:45:12;;;;;;;1.07;0.77;;;19.80;99.90;;;;;;5009042;28;20211;-86
2022/07/09 12:47:38;;;;;;;0.57;0.57;;;19.50;99.90;;;;;;4993790;28;20583;-86